Time;durP1;ratioP1;P1;durP2;ratioP2;P2;SDS_P1;SDS_P2;PMS_P1;PMS_P2;Temp;Humidity;BMP_temperature;BMP_pressure;BME280_temperature;BME280_humidity;BME280_pressure;Samples;Min_cycle;Max_cycle;Signal;HPM_P1;HPM_P2
2021/05/05 00:00:13;;;;;;;2.53;1.57;;;8.40;99.90;;;;;;5013195;28;20420;-76
2021/05/05 00:02:41;;;;;;;1.60;1.40;;;8.50;99.90;;;;;;5012979;28;20411;-77
2021/05/05 00:05:07;;;;;;;3.33;1.63;;;8.50;99.90;;;;;;5013069;28;20447;-77
2021/05/05 00:07:32;;;;;;;1.77;1.60;;;8.50;99.90;;;;;;5013093;28;20466;-77
2021/05/05 00:09:58;;;;;;;2.67;1.40;;;8.60;99.90;;;;;;5012774;28;20973;-78
2021/05/05 00:12:23;;;;;;;4.57;1.97;;;8.50;99.90;;;;;;5013023;28;20168;-77
2021/05/05 00:14:48;;;;;;;2.77;1.40;;;8.60;99.90;;;;;;5012962;28;20196;-77
2021/05/05 00:17:14;;;;;;;1.90;1.27;;;8.60;99.90;;;;;;5012454;28;20554;-77
2021/05/05 00:19:39;;;;;;;2.00;1.63;;;8.60;99.90;;;;;;5013038;28;20173;-77
2021/05/05 00:22:06;;;;;;;3.07;1.93;;;8.60;99.90;;;;;;5012749;28;20180;-77
2021/05/05 00:24:32;;;;;;;1.80;1.20;;;8.60;99.90;;;;;;5012872;28;20533;-77
2021/05/05 00:26:57;;;;;;;6.07;1.60;;;8.50;99.90;;;;;;5012560;28;20453;-77
2021/05/05 00:29:23;;;;;;;2.27;1.70;;;8.40;99.90;;;;;;5013818;28;20191;-78
2021/05/05 00:31:48;;;;;;;3.00;1.40;;;8.40;99.90;;;;;;5012833;28;20172;-78
2021/05/05 00:34:13;;;;;;;1.27;1.17;;;8.30;99.90;;;;;;5012983;28;20200;-77
2021/05/05 00:36:39;;;;;;;2.80;1.37;;;8.20;99.90;;;;;;5016069;28;20175;-78
2021/05/05 00:39:05;;;;;;;2.90;1.30;;;8.20;99.90;;;;;;5013210;28;20709;-76
2021/05/05 00:41:31;;;;;;;2.40;1.43;;;8.20;99.90;;;;;;5012801;28;20546;-77
2021/05/05 00:43:56;;;;;;;4.60;1.80;;;8.10;99.90;;;;;;5012831;28;20415;-77
2021/05/05 00:46:22;;;;;;;2.30;1.60;;;8.10;99.90;;;;;;5012090;28;20218;-77
2021/05/05 00:48:47;;;;;;;4.03;1.80;;;8.10;99.90;;;;;;5002094;28;20217;-77
2021/05/05 00:51:13;;;;;;;4.97;1.63;;;8.00;99.90;;;;;;4992976;28;20562;-77
2021/05/05 00:53:40;;;;;;;3.53;1.43;;;8.00;99.90;;;;;;4992856;28;20161;-77
2021/05/05 00:56:06;;;;;;;2.47;1.60;;;8.00;99.90;;;;;;5013394;28;20247;-77
2021/05/05 00:58:32;;;;;;;3.47;1.77;;;8.00;99.90;;;;;;5032010;28;20505;-78
2021/05/05 01:00:57;;;;;;;2.80;1.57;;;7.90;99.90;;;;;;5022436;28;20482;-77
2021/05/05 01:03:23;;;;;;;1.80;1.30;;;8.00;99.90;;;;;;5012321;28;20165;-77
2021/05/05 01:05:50;;;;;;;3.20;1.50;;;7.90;99.90;;;;;;5012318;28;20199;-77
2021/05/05 01:08:19;;;;;;;2.87;1.60;;;7.90;99.90;;;;;;5010976;28;20181;-77
2021/05/05 01:10:45;;;;;;;4.37;2.47;;;8.00;99.90;;;;;;5012452;28;20469;-77
2021/05/05 01:13:13;;;;;;;2.43;1.30;;;8.10;99.90;;;;;;5003841;28;20419;-77
2021/05/05 01:15:39;;;;;;;2.13;1.60;;;8.20;99.90;;;;;;5002292;28;20473;-77
2021/05/05 01:18:05;;;;;;;2.43;2.00;;;8.20;99.90;;;;;;5009658;28;20970;-77
2021/05/05 01:20:30;;;;;;;4.80;2.10;;;8.20;99.90;;;;;;5010424;28;20410;-77
2021/05/05 01:22:56;;;;;;;2.63;1.87;;;8.20;99.90;;;;;;5011098;28;20230;-77
2021/05/05 01:25:22;;;;;;;2.40;1.90;;;8.20;99.90;;;;;;5011877;28;20230;-77
2021/05/05 01:27:48;;;;;;;5.13;2.50;;;8.10;99.90;;;;;;5011530;28;20202;-77
2021/05/05 01:30:16;;;;;;;4.67;2.43;;;8.10;99.90;;;;;;5011678;28;20539;-77
2021/05/05 01:32:42;;;;;;;4.43;2.17;;;8.00;99.90;;;;;;5011616;28;20168;-77
2021/05/05 01:35:09;;;;;;;5.70;2.20;;;8.00;99.90;;;;;;5011605;28;20414;-77
2021/05/05 01:37:35;;;;;;;2.53;2.00;;;7.90;99.90;;;;;;5011593;28;20179;-77
2021/05/05 01:40:04;;;;;;;8.70;2.83;;;7.90;99.90;;;;;;5011755;28;20472;-77
2021/05/05 01:42:29;;;;;;;4.07;2.37;;;7.90;99.90;;;;;;5011656;28;20264;-77
2021/05/05 01:44:55;;;;;;;2.83;1.73;;;7.90;99.90;;;;;;5011958;28;20911;-77
2021/05/05 01:47:20;;;;;;;5.07;2.10;;;7.80;99.90;;;;;;5011767;28;20721;-77
2021/05/05 01:49:47;;;;;;;2.80;1.70;;;7.80;99.90;;;;;;5012045;28;20713;-77
2021/05/05 01:52:14;;;;;;;1.87;1.50;;;7.80;99.90;;;;;;5012081;28;20165;-77
2021/05/05 01:54:40;;;;;;;2.20;1.43;;;7.80;99.90;;;;;;5011493;28;20416;-77
2021/05/05 01:57:35;;;;;;;5.73;1.70;;;7.70;99.90;;;;;;5011157;28;20427;-77
2021/05/05 02:00:09;;;;;;;1.93;1.70;;;7.70;99.90;;;;;;5006201;28;20176;-77
2021/05/05 02:02:35;;;;;;;4.20;1.80;;;7.70;99.90;;;;;;5011222;28;20779;-77
2021/05/05 02:05:02;;;;;;;3.30;1.47;;;7.70;99.90;;;;;;5011519;28;20412;-77
2021/05/05 02:07:28;;;;;;;3.00;1.83;;;7.80;99.90;;;;;;5011574;28;20512;-76
2021/05/05 02:09:53;;;;;;;2.50;1.73;;;7.80;99.90;;;;;;5011079;28;20549;-76
2021/05/05 02:12:20;;;;;;;2.00;1.50;;;7.80;99.90;;;;;;5011240;28;20260;-76
2021/05/05 02:14:46;;;;;;;4.27;2.00;;;7.80;99.90;;;;;;5011049;28;20169;-76
2021/05/05 02:17:12;;;;;;;2.50;1.57;;;7.90;99.90;;;;;;5011025;28;20415;-76
2021/05/05 02:19:38;;;;;;;3.43;1.70;;;7.90;99.90;;;;;;5013251;28;20510;-76
2021/05/05 02:22:03;;;;;;;2.83;1.80;;;8.00;99.90;;;;;;5014929;28;20176;-76
2021/05/05 02:24:29;;;;;;;3.40;2.00;;;8.00;99.90;;;;;;5015243;28;20605;-76
2021/05/05 02:26:54;;;;;;;5.87;1.83;;;8.10;99.90;;;;;;4996917;28;20207;-75
2021/05/05 02:29:20;;;;;;;3.40;1.27;;;8.10;99.90;;;;;;5014999;28;20228;-76
2021/05/05 02:31:46;;;;;;;5.27;1.50;;;8.10;99.90;;;;;;5013119;28;20168;-76
2021/05/05 02:34:11;;;;;;;8.27;2.03;;;8.00;99.90;;;;;;5014373;28;20180;-76
2021/05/05 02:36:37;;;;;;;1.97;1.50;;;8.00;99.90;;;;;;5014424;28;21046;-76
2021/05/05 02:39:06;;;;;;;2.80;1.90;;;8.00;99.90;;;;;;4996854;28;20208;-76
2021/05/05 02:41:32;;;;;;;3.43;1.90;;;8.00;99.90;;;;;;5014509;28;20271;-77
2021/05/05 02:43:58;;;;;;;4.17;2.00;;;8.00;99.90;;;;;;5014358;28;20414;-76
2021/05/05 02:46:23;;;;;;;4.83;1.70;;;8.00;99.90;;;;;;5014037;28;20596;-76
2021/05/05 02:48:49;;;;;;;5.00;1.97;;;7.90;99.90;;;;;;5014023;28;20196;-77
2021/05/05 02:51:14;;;;;;;1.87;1.40;;;7.90;99.90;;;;;;5014452;28;20180;-76
2021/05/05 02:53:39;;;;;;;2.03;1.73;;;7.80;99.90;;;;;;5014241;28;20234;-76
2021/05/05 02:56:05;;;;;;;2.27;2.07;;;7.80;99.90;;;;;;5013972;28;20566;-76
2021/05/05 02:58:30;;;;;;;3.27;1.80;;;7.80;99.90;;;;;;5013788;28;20188;-76
2021/05/05 03:00:56;;;;;;;4.80;2.23;;;7.70;99.90;;;;;;5013962;28;20239;-76
2021/05/05 03:03:22;;;;;;;2.20;2.00;;;7.70;99.90;;;;;;5013658;28;20505;-76
2021/05/05 03:05:47;;;;;;;3.63;1.60;;;7.70;99.90;;;;;;5013979;28;20168;-76
2021/05/05 03:08:14;;;;;;;4.23;1.87;;;7.60;99.90;;;;;;5013589;28;20589;-77
2021/05/05 03:10:39;;;;;;;4.37;1.80;;;7.60;99.90;;;;;;5013877;28;20192;-76
2021/05/05 03:13:05;;;;;;;6.93;2.30;;;7.50;99.90;;;;;;4996311;28;20415;-76
2021/05/05 03:15:31;;;;;;;3.80;2.33;;;7.50;99.90;;;;;;5013965;28;20545;-77
2021/05/05 03:17:56;;;;;;;3.60;1.53;;;7.50;99.90;;;;;;5013364;28;20473;-76
2021/05/05 03:20:22;;;;;;;2.50;2.00;;;7.40;99.90;;;;;;5013699;28;20168;-76
2021/05/05 03:22:47;;;;;;;4.17;1.80;;;7.50;99.90;;;;;;5014007;28;20655;-77
2021/05/05 03:25:13;;;;;;;5.20;2.03;;;7.40;99.90;;;;;;5012455;28;20260;-75
2021/05/05 03:27:38;;;;;;;5.70;5.20;;;7.40;99.90;;;;;;4997271;28;20722;-75
2021/05/05 03:30:06;;;;;;;4.23;2.33;;;7.40;99.90;;;;;;4993428;28;20208;-76
2021/05/05 03:32:31;;;;;;;7.20;2.40;;;7.40;99.90;;;;;;4993543;28;20256;-76
2021/05/05 03:34:56;;;;;;;3.70;1.80;;;7.40;99.90;;;;;;4994045;28;20578;-76
2021/05/05 03:37:22;;;;;;;5.93;2.80;;;7.40;99.90;;;;;;4993693;28;20774;-76
2021/05/05 03:39:48;;;;;;;3.63;2.17;;;7.50;99.90;;;;;;4994159;28;20300;-76
2021/05/05 03:42:14;;;;;;;2.23;2.03;;;7.50;99.90;;;;;;4995205;28;20645;-76
2021/05/05 03:44:39;;;;;;;4.03;1.60;;;7.50;99.90;;;;;;4995694;28;20188;-76
2021/05/05 03:47:05;;;;;;;4.93;2.20;;;7.50;99.90;;;;;;4993865;28;20435;-77
2021/05/05 03:49:30;;;;;;;3.90;2.20;;;7.50;99.90;;;;;;4993577;28;20672;-76
2021/05/05 03:51:56;;;;;;;8.60;2.37;;;7.50;99.90;;;;;;4993652;28;20200;-76
2021/05/05 03:54:22;;;;;;;1.87;1.60;;;7.60;99.90;;;;;;4996861;28;20231;-77
2021/05/05 03:56:47;;;;;;;4.13;2.10;;;7.70;99.90;;;;;;5013036;28;20600;-76
2021/05/05 03:59:13;;;;;;;5.40;2.10;;;7.70;99.90;;;;;;5013088;28;20204;-77
2021/05/05 04:01:38;;;;;;;2.20;2.10;;;7.70;99.90;;;;;;5012749;28;20169;-77
2021/05/05 04:04:04;;;;;;;6.50;1.80;;;7.80;99.90;;;;;;5013019;28;20164;-76
2021/05/05 04:06:30;;;;;;;4.57;2.30;;;7.80;99.90;;;;;;5012690;28;20711;-77
2021/05/05 04:08:55;;;;;;;3.40;1.80;;;7.90;99.90;;;;;;5012834;28;20513;-76
2021/05/05 04:11:21;;;;;;;5.00;2.43;;;7.90;99.90;;;;;;5012727;28;20172;-76
2021/05/05 04:13:46;;;;;;;4.50;2.03;;;7.90;99.90;;;;;;5012952;28;20179;-76
2021/05/05 04:16:12;;;;;;;6.20;2.30;;;7.90;99.90;;;;;;5012603;28;20191;-77
2021/05/05 04:18:37;;;;;;;2.90;1.70;;;8.00;99.90;;;;;;5012805;28;20253;-77
2021/05/05 04:21:05;;;;;;;1.97;1.60;;;8.00;99.90;;;;;;5012994;28;20559;-76
2021/05/05 04:23:33;;;;;;;2.97;1.67;;;8.00;99.90;;;;;;5012771;28;20160;-76
2021/05/05 04:25:58;;;;;;;3.20;1.60;;;8.00;99.90;;;;;;5013219;28;20461;-77
2021/05/05 04:28:25;;;;;;;2.80;1.70;;;8.00;99.90;;;;;;5013373;28;20427;-76
2021/05/05 04:30:50;;;;;;;3.43;1.70;;;8.00;99.90;;;;;;5013839;28;20168;-77
2021/05/05 04:33:16;;;;;;;1.80;1.63;;;8.00;99.90;;;;;;5014275;28;20395;-77
2021/05/05 04:35:42;;;;;;;2.33;1.80;;;8.10;99.90;;;;;;5013794;28;20640;-77
2021/05/05 04:38:08;;;;;;;4.23;1.90;;;8.10;99.90;;;;;;5013543;28;20374;-77
2021/05/05 04:40:34;;;;;;;5.50;1.93;;;8.10;99.90;;;;;;5012548;28;20473;-77
2021/05/05 04:43:00;;;;;;;7.00;2.20;;;8.10;99.90;;;;;;5011893;28;20407;-77
2021/05/05 04:45:26;;;;;;;2.00;1.80;;;8.10;99.90;;;;;;5013676;28;20255;-77
2021/05/05 04:47:51;;;;;;;2.57;1.43;;;8.30;99.90;;;;;;5014408;28;20988;-76
2021/05/05 04:50:17;;;;;;;6.43;1.60;;;8.30;99.90;;;;;;5013889;28;20246;-77
2021/05/05 04:52:43;;;;;;;2.20;1.90;;;8.40;99.90;;;;;;5014495;28;20168;-76
2021/05/05 04:55:09;;;;;;;1.90;1.70;;;8.40;99.90;;;;;;4996404;28;20202;-76
2021/05/05 04:57:35;;;;;;;8.00;1.60;;;8.50;99.90;;;;;;4993901;28;20442;-76
2021/05/05 05:00:02;;;;;;;3.60;2.27;;;8.50;99.90;;;;;;4994143;28;20565;-76
2021/05/05 05:02:28;;;;;;;2.20;1.73;;;8.50;99.90;;;;;;5011829;28;20541;-76
2021/05/05 05:04:53;;;;;;;2.00;1.60;;;8.60;99.90;;;;;;5012063;28;20498;-77
2021/05/05 05:07:19;;;;;;;5.27;2.07;;;8.60;99.90;;;;;;5011930;28;20200;-76
2021/05/05 05:09:44;;;;;;;3.30;2.10;;;8.60;99.90;;;;;;5011801;28;20629;-76
2021/05/05 05:12:10;;;;;;;5.87;1.87;;;8.60;99.90;;;;;;5011721;28;20191;-77
2021/05/05 05:14:37;;;;;;;2.90;1.70;;;8.70;99.90;;;;;;5011698;28;20180;-76
2021/05/05 05:17:03;;;;;;;3.13;1.83;;;8.70;99.90;;;;;;5011464;28;20713;-76
2021/05/05 05:19:29;;;;;;;5.33;1.60;;;8.80;99.90;;;;;;5011808;28;20407;-76
2021/05/05 05:21:54;;;;;;;2.70;1.90;;;8.80;99.90;;;;;;5011914;28;20462;-77
2021/05/05 05:24:20;;;;;;;2.70;1.90;;;8.90;99.90;;;;;;5011933;28;20180;-77
2021/05/05 05:26:46;;;;;;;3.53;2.10;;;8.90;99.90;;;;;;5008002;28;20199;-76
2021/05/05 05:29:11;;;;;;;1.70;1.60;;;8.90;99.90;;;;;;4993132;28;20255;-77
2021/05/05 05:31:37;;;;;;;2.77;1.50;;;9.00;99.90;;;;;;4992726;28;20161;-77
2021/05/05 05:34:02;;;;;;;2.90;2.00;;;9.00;99.90;;;;;;4992675;28;20168;-76
2021/05/05 05:36:28;;;;;;;2.40;1.67;;;9.10;99.90;;;;;;4992261;28;20560;-76
2021/05/05 05:38:53;;;;;;;6.30;2.17;;;9.20;99.90;;;;;;4992417;28;20177;-77
2021/05/05 05:41:19;;;;;;;5.70;2.03;;;9.10;99.90;;;;;;4992287;28;20176;-76
2021/05/05 05:43:44;;;;;;;4.73;2.03;;;9.20;99.90;;;;;;4992973;28;20660;-77
2021/05/05 05:46:11;;;;;;;2.00;1.63;;;9.30;99.90;;;;;;4993194;28;20170;-76
2021/05/05 05:48:36;;;;;;;4.43;2.00;;;9.10;99.90;;;;;;4993597;28;20193;-77
2021/05/05 05:51:02;;;;;;;2.83;1.60;;;9.20;99.90;;;;;;4994238;28;20416;-76
2021/05/05 05:53:28;;;;;;;3.13;1.90;;;9.10;99.90;;;;;;4977228;28;20180;-76
2021/05/05 05:55:53;;;;;;;3.40;1.60;;;9.00;99.90;;;;;;5013512;28;20556;-77
2021/05/05 05:58:19;;;;;;;6.30;2.00;;;8.90;99.90;;;;;;5016201;28;20196;-76
2021/05/05 06:00:45;;;;;;;3.83;2.30;;;8.90;99.90;;;;;;5015629;28;20178;-76
2021/05/05 06:03:10;;;;;;;5.10;1.80;;;8.80;99.90;;;;;;5015346;28;20168;-77
2021/05/05 06:05:36;;;;;;;1.90;1.33;;;8.80;99.90;;;;;;4997591;28;20415;-76
2021/05/05 06:08:03;;;;;;;3.17;1.83;;;8.90;99.90;;;;;;5014989;28;20215;-76
2021/05/05 06:10:29;;;;;;;6.87;1.93;;;8.90;99.90;;;;;;5015706;28;20200;-77
2021/05/05 06:12:54;;;;;;;3.00;1.40;;;9.00;99.90;;;;;;5015525;28;20414;-77
2021/05/05 06:15:20;;;;;;;3.33;1.60;;;9.20;99.90;;;;;;5015534;28;20252;-77
2021/05/05 06:17:46;;;;;;;1.50;1.40;;;9.50;99.90;;;;;;5016078;28;20623;-77
2021/05/05 06:20:13;;;;;;;2.40;1.40;;;9.50;99.90;;;;;;5013341;28;20515;-76
2021/05/05 06:22:38;;;;;;;4.13;2.00;;;9.50;99.90;;;;;;4999155;28;20430;-78
2021/05/05 06:25:06;;;;;;;4.83;2.17;;;9.30;99.90;;;;;;5015197;28;20460;-77
2021/05/05 06:27:32;;;;;;;2.60;1.80;;;9.30;99.90;;;;;;5017055;28;20192;-77
2021/05/05 06:29:57;;;;;;;4.27;2.60;;;9.50;99.90;;;;;;5016073;28;20583;-77
2021/05/05 06:32:23;;;;;;;6.23;2.57;;;9.80;99.90;;;;;;5015157;28;20175;-76
2021/05/05 06:34:49;;;;;;;5.63;2.93;;;9.90;99.90;;;;;;5016119;28;20570;-75
2021/05/05 06:37:16;;;;;;;2.80;2.17;;;10.00;99.90;;;;;;5014942;28;20280;-73
2021/05/05 06:39:41;;;;;;;2.90;1.50;;;9.90;99.90;;;;;;5014509;28;20414;-75
2021/05/05 06:42:07;;;;;;;3.17;1.73;;;10.00;99.90;;;;;;5015470;28;20403;-76
2021/05/05 06:44:32;;;;;;;2.00;1.57;;;10.00;99.90;;;;;;5014800;28;20230;-78
2021/05/05 06:46:58;;;;;;;4.13;1.93;;;10.00;99.90;;;;;;5014579;28;20196;-76
2021/05/05 06:49:24;;;;;;;7.73;1.90;;;9.90;99.90;;;;;;5014698;28;20216;-73
2021/05/05 06:51:51;;;;;;;2.10;1.77;;;10.00;99.90;;;;;;5014459;28;20199;-78
2021/05/05 06:54:17;;;;;;;2.73;2.00;;;10.40;99.90;;;;;;5014532;28;20207;-79
2021/05/05 06:56:42;;;;;;;4.20;1.50;;;10.70;99.90;;;;;;5014247;28;20399;-77
2021/05/05 06:59:08;;;;;;;2.23;1.50;;;10.60;99.90;;;;;;5014265;28;20956;-75
2021/05/05 07:01:36;;;;;;;5.03;1.73;;;10.60;99.90;;;;;;5008336;28;20267;-76
2021/05/05 07:04:06;;;;;;;3.87;1.77;;;10.60;99.90;;;;;;5012844;28;20172;-76
2021/05/05 07:06:33;;;;;;;2.70;1.67;;;10.40;99.90;;;;;;5013541;28;20890;-75
2021/05/05 07:08:59;;;;;;;3.53;1.73;;;10.10;99.90;;;;;;5015649;28;20469;-76
2021/05/05 07:11:29;;;;;;;2.93;2.73;;;10.00;99.90;;;;;;5008698;28;20773;-75
2021/05/05 07:13:54;;;;;;;2.17;1.70;;;9.90;99.90;;;;;;4996603;28;20891;-76
2021/05/05 07:16:21;;;;;;;4.27;2.63;;;10.10;99.90;;;;;;4999488;28;20432;-76
2021/05/05 07:18:47;;;;;;;2.47;1.60;;;9.90;99.90;;;;;;5019079;28;20270;-77
2021/05/05 07:21:12;;;;;;;2.60;1.90;;;9.80;99.90;;;;;;5002732;28;20419;-77
2021/05/05 07:23:38;;;;;;;3.27;2.13;;;9.70;99.90;;;;;;5013090;28;20435;-77
2021/05/05 07:26:03;;;;;;;4.63;2.00;;;9.70;99.90;;;;;;4999519;28;20170;-77
2021/05/05 07:28:30;;;;;;;4.13;2.30;;;9.70;99.90;;;;;;5000152;28;20654;-78
2021/05/05 07:30:56;;;;;;;1.90;1.80;;;10.10;99.90;;;;;;5007732;28;20255;-77
2021/05/05 07:33:22;;;;;;;2.30;1.77;;;10.30;99.90;;;;;;5011769;28;20475;-77
2021/05/05 07:35:54;;;;;;;6.33;1.83;;;10.80;99.90;;;;;;5015293;28;20400;-77
2021/05/05 07:38:36;;;;;;;2.30;1.60;;;10.70;99.90;;;;;;5013590;28;20188;-77
2021/05/05 07:46:27;;;;;;;2.37;2.17;;;11.10;99.90;;;;;;5009495;28;20475;-77
2021/05/05 07:49:31;;;;;;;2.00;1.80;;;11.00;99.90;;;;;;4989415;28;20456;-77
2021/05/05 07:52:00;;;;;;;3.27;2.10;;;10.90;99.90;;;;;;4999792;28;20411;-77
2021/05/05 07:54:36;;;;;;;2.40;1.70;;;10.80;99.90;;;;;;5002677;28;20483;-77
2021/05/05 07:57:02;;;;;;;4.10;1.90;;;11.20;99.90;;;;;;4999116;28;20442;-78
2021/05/05 07:59:31;;;;;;;3.87;1.97;;;11.10;99.90;;;;;;5014143;28;20399;-77
2021/05/05 08:01:57;;;;;;;3.47;2.17;;;11.30;99.90;;;;;;5015600;28;20419;-77
2021/05/05 08:04:23;;;;;;;3.70;2.00;;;11.50;99.90;;;;;;5013374;28;20411;-77
2021/05/05 08:06:49;;;;;;;1.60;1.50;;;11.90;99.90;;;;;;5016501;28;20427;-77
2021/05/05 08:09:15;;;;;;;1.93;1.73;;;11.60;99.90;;;;;;4998155;28;20215;-77
2021/05/05 08:11:41;;;;;;;3.37;2.10;;;11.70;99.90;;;;;;5016389;28;20415;-76
2021/05/05 08:14:07;;;;;;;2.00;1.47;;;11.80;99.90;;;;;;4998303;28;20443;-77
2021/05/05 08:16:32;;;;;;;2.57;1.70;;;11.50;99.90;;;;;;4997308;28;20473;-76
2021/05/05 08:19:02;;;;;;;3.40;2.47;;;11.40;99.90;;;;;;5014561;28;20168;-77
2021/05/05 08:21:28;;;;;;;2.03;1.53;;;11.40;99.90;;;;;;5014734;28;20214;-77
2021/05/05 08:23:57;;;;;;;7.80;1.63;;;11.00;99.90;;;;;;4996853;28;20423;-77
2021/05/05 08:26:24;;;;;;;2.90;1.60;;;11.60;99.90;;;;;;4996920;28;20442;-77
2021/05/05 08:28:53;;;;;;;1.93;1.70;;;12.40;99.90;;;;;;5019950;28;20463;-77
2021/05/05 08:31:19;;;;;;;2.23;1.47;;;12.40;99.90;;;;;;4998861;28;20922;-77
2021/05/05 08:33:45;;;;;;;2.17;1.60;;;12.40;99.90;;;;;;4999532;28;20914;-76
2021/05/05 08:36:11;;;;;;;1.67;1.50;;;12.20;99.90;;;;;;5018113;28;20175;-76
2021/05/05 08:38:37;;;;;;;2.63;1.40;;;11.40;99.90;;;;;;4999451;28;20435;-78
2021/05/05 08:41:04;;;;;;;4.73;1.70;;;11.00;99.90;;;;;;5017618;28;20441;-77
2021/05/05 08:43:33;;;;;;;2.33;1.50;;;11.20;99.90;;;;;;5000086;28;20689;-78
2021/05/05 08:45:59;;;;;;;1.90;1.40;;;11.60;99.90;;;;;;4999968;28;20447;-77
2021/05/05 08:48:29;;;;;;;5.90;1.73;;;11.50;99.90;;;;;;5015835;28;20430;-78
2021/05/05 08:50:54;;;;;;;1.50;1.30;;;11.40;99.90;;;;;;4993353;28;20482;-77
2021/05/05 08:53:20;;;;;;;1.37;1.20;;;11.50;99.90;;;;;;5011272;28;20419;-78
2021/05/05 08:55:46;;;;;;;1.90;1.50;;;11.80;99.90;;;;;;5004432;28;20195;-77
2021/05/05 08:58:12;;;;;;;2.00;1.40;;;11.50;99.90;;;;;;4995055;28;20914;-78
2021/05/05 09:00:38;;;;;;;2.30;1.67;;;11.60;99.90;;;;;;5012465;28;20440;-76
2021/05/05 09:03:06;;;;;;;2.17;1.60;;;11.80;99.90;;;;;;5009824;28;20184;-77
2021/05/05 09:05:53;;;;;;;1.93;1.50;;;12.60;99.90;;;;;;4992626;28;20412;-76
2021/05/05 09:08:21;;;;;;;3.83;1.80;;;12.70;99.90;;;;;;5009007;28;20456;-77
2021/05/05 09:10:55;;;;;;;1.97;1.40;;;13.00;99.90;;;;;;4994896;28;20568;-77
2021/05/05 09:13:45;;;;;;;0.97;0.90;;;13.50;99.90;;;;;;5012378;28;20493;-77
2021/05/05 09:16:13;;;;;;;2.00;1.33;;;13.60;99.90;;;;;;4994413;28;20426;-77
2021/05/05 09:19:01;;;;;;;2.70;1.10;;;13.30;99.90;;;;;;5012268;28;20420;-78
2021/05/05 09:21:30;;;;;;;1.60;1.30;;;13.30;99.90;;;;;;4993415;28;20405;-78
2021/05/05 09:24:15;;;;;;;1.80;1.10;;;13.20;99.10;;;;;;5010193;28;20434;-78
2021/05/05 09:26:40;;;;;;;2.50;1.27;;;13.80;98.90;;;;;;5013065;28;20467;-78
2021/05/05 09:29:06;;;;;;;1.70;1.30;;;14.60;96.90;;;;;;5012830;28;20464;-79
2021/05/05 09:31:36;;;;;;;3.03;1.03;;;14.10;98.60;;;;;;4995808;28;20171;-78
2021/05/05 09:34:03;;;;;;;1.30;0.93;;;14.70;96.50;;;;;;5013057;28;20242;-78
2021/05/05 09:36:29;;;;;;;1.40;1.00;;;13.80;95.30;;;;;;5012063;28;20780;-77
2021/05/05 09:38:55;;;;;;;2.70;1.20;;;14.10;96.60;;;;;;5012821;28;20769;-78
2021/05/05 09:41:29;;;;;;;3.07;1.30;;;14.30;94.90;;;;;;5014124;28;20419;-77
2021/05/05 09:44:00;;;;;;;2.20;1.50;;;13.20;94.50;;;;;;5013534;28;20423;-77
2021/05/05 09:46:43;;;;;;;1.90;1.70;;;12.50;95.90;;;;;;5014339;28;20411;-77
2021/05/05 09:49:29;;;;;;;1.37;1.27;;;12.40;96.20;;;;;;4995108;28;20444;-76
2021/05/05 09:51:58;;;;;;;3.83;1.10;;;12.80;95.00;;;;;;5002863;28;20478;-77
2021/05/05 09:54:28;;;;;;;1.67;0.90;;;12.20;95.20;;;;;;5013927;28;20817;-77
2021/05/05 09:56:54;;;;;;;1.70;1.47;;;12.50;96.40;;;;;;5006488;28;20424;-77
2021/05/05 09:59:22;;;;;;;1.73;1.63;;;12.20;97.00;;;;;;4993093;28;20783;-77
2021/05/05 10:01:59;;;;;;;1.47;1.37;;;12.20;97.60;;;;;;4992740;28;20403;-77
2021/05/05 10:04:25;;;;;;;2.73;2.07;;;11.70;99.80;;;;;;4998222;28;20408;-77
2021/05/05 10:07:00;;;;;;;2.00;1.50;;;11.30;99.90;;;;;;4998323;28;20428;-77
2021/05/05 10:09:26;;;;;;;1.07;0.97;;;10.80;99.90;;;;;;5012194;28;20196;-78
2021/05/05 10:11:53;;;;;;;3.63;1.00;;;10.30;99.90;;;;;;5018259;28;20414;-79
2021/05/05 10:14:20;;;;;;;1.83;1.20;;;10.40;99.90;;;;;;5006109;28;20416;-79
2021/05/05 10:16:52;;;;;;;1.30;1.20;;;10.40;99.90;;;;;;4993915;28;20837;-78
2021/05/05 10:19:26;;;;;;;1.80;1.70;;;10.70;99.90;;;;;;5008914;28;20937;-78
2021/05/05 10:22:06;;;;;;;3.57;2.17;;;10.90;99.90;;;;;;5014759;28;20410;-76
2021/05/05 10:24:37;;;;;;;2.60;2.10;;;11.60;99.90;;;;;;5032162;28;20430;-74
2021/05/05 10:27:02;;;;;;;2.17;1.97;;;11.60;99.90;;;;;;5021860;28;20434;-77
2021/05/05 10:29:32;;;;;;;2.60;2.40;;;11.80;99.90;;;;;;5016850;28;20942;-77
2021/05/05 10:32:03;;;;;;;2.60;2.40;;;11.70;99.90;;;;;;5011845;28;20411;-77
2021/05/05 10:34:30;;;;;;;2.60;2.40;;;12.10;99.90;;;;;;5011972;28;20495;-77
2021/05/05 10:37:00;;;;;;;2.70;2.50;;;12.50;99.90;;;;;;5011319;28;20937;-77
2021/05/05 10:39:39;;;;;;;2.73;2.53;;;12.90;99.90;;;;;;5013825;28;20481;-77
2021/05/05 10:42:14;;;;;;;3.70;2.43;;;12.30;99.90;;;;;;5016334;28;20438;-78
2021/05/05 10:44:44;;;;;;;2.17;2.00;;;11.70;99.90;;;;;;5017478;28;20422;-78
2021/05/05 10:47:26;;;;;;;2.70;2.40;;;11.60;99.90;;;;;;5015209;28;20439;-77
2021/05/05 10:50:02;;;;;;;3.47;2.47;;;11.70;99.90;;;;;;5015588;28;20803;-78
2021/05/05 10:52:49;;;;;;;1.70;1.60;;;11.80;99.90;;;;;;5006021;28;20420;-77
2021/05/05 10:55:19;;;;;;;4.63;1.87;;;12.10;99.90;;;;;;4984064;28;20411;-78
2021/05/05 10:58:04;;;;;;;2.83;1.53;;;12.60;99.90;;;;;;5015312;28;20419;-77
2021/05/05 11:00:49;;;;;;;2.00;1.63;;;12.70;99.90;;;;;;5015099;28;20469;-78
2021/05/05 11:03:16;;;;;;;1.30;1.20;;;12.50;99.90;;;;;;5015943;28;20947;-77
2021/05/05 11:05:44;;;;;;;2.07;1.57;;;12.60;99.90;;;;;;5017518;28;20415;-76
2021/05/05 11:08:25;;;;;;;2.17;1.63;;;12.50;99.90;;;;;;5016545;28;20441;-77
2021/05/05 11:10:51;;;;;;;1.63;1.33;;;12.40;99.90;;;;;;5014636;28;20458;-76
2021/05/05 11:13:23;;;;;;;2.07;1.27;;;12.40;99.90;;;;;;5015048;28;20415;-76
2021/05/05 11:15:53;;;;;;;2.50;1.13;;;12.40;99.90;;;;;;4994908;28;20840;-77
2021/05/05 11:18:31;;;;;;;1.93;1.60;;;12.30;99.90;;;;;;4994670;28;20428;-77
2021/05/05 11:20:59;;;;;;;2.00;1.60;;;12.40;99.90;;;;;;4994840;28;20487;-77
2021/05/05 11:23:38;;;;;;;1.53;1.43;;;12.40;99.90;;;;;;5006240;28;20454;-77
2021/05/05 11:26:19;;;;;;;1.10;1.00;;;12.70;99.90;;;;;;5014222;28;20414;-77
2021/05/05 11:28:57;;;;;;;2.10;1.03;;;12.60;99.90;;;;;;5019207;28;20461;-77
2021/05/05 11:31:44;;;;;;;1.10;1.00;;;12.90;99.70;;;;;;5013870;28;20403;-77
2021/05/05 11:34:09;;;;;;;2.40;1.20;;;13.30;99.90;;;;;;5013909;28;20399;-77
2021/05/05 11:36:35;;;;;;;0.67;0.67;;;13.70;98.60;;;;;;5013691;28;20737;-77
2021/05/05 11:39:02;;;;;;;1.80;0.87;;;13.80;96.00;;;;;;5014076;28;20513;-77
2021/05/05 11:41:29;;;;;;;1.10;0.93;;;13.80;95.20;;;;;;4996816;28;20173;-77
2021/05/05 11:43:55;;;;;;;2.57;1.60;;;13.80;95.20;;;;;;5014599;28;20491;-77
2021/05/05 11:46:22;;;;;;;2.13;1.10;;;14.00;93.90;;;;;;5013984;28;21012;-78
2021/05/05 11:48:47;;;;;;;1.53;0.80;;;14.10;92.40;;;;;;4996776;28;20466;-77
2021/05/05 11:51:25;;;;;;;6.03;1.17;;;14.20;92.90;;;;;;5013387;28;20450;-78
2021/05/05 11:53:51;;;;;;;4.63;0.90;;;14.40;91.50;;;;;;5014033;28;20180;-77
2021/05/05 11:56:26;;;;;;;1.70;0.97;;;14.30;91.60;;;;;;5013609;28;20766;-78
2021/05/05 11:58:57;;;;;;;1.97;0.90;;;14.20;91.20;;;;;;5013877;28;20433;-77
2021/05/05 12:01:37;;;;;;;1.43;1.03;;;14.50;91.80;;;;;;5013844;28;20431;-76
2021/05/05 12:04:13;;;;;;;4.40;1.73;;;14.30;91.10;;;;;;5014243;28;20403;-76
2021/05/05 12:06:53;;;;;;;13.03;8.97;;;13.30;92.70;;;;;;5016773;28;20411;-75
2021/05/05 12:09:27;;;;;;;3.73;1.50;;;13.60;93.70;;;;;;5017461;28;20569;-76
2021/05/05 12:12:15;;;;;;;8.77;5.73;;;13.10;92.20;;;;;;5003016;28;20418;-76
2021/05/05 12:14:43;;;;;;;4.63;2.93;;;12.90;93.60;;;;;;5021444;28;20403;-75
2021/05/05 12:17:18;;;;;;;6.87;4.00;;;12.70;92.70;;;;;;5015275;28;20416;-75
2021/05/05 12:19:58;;;;;;;3.10;1.80;;;12.90;93.40;;;;;;5016858;28;20409;-75
2021/05/05 12:22:26;;;;;;;2.50;1.90;;;13.20;92.10;;;;;;5015806;28;21135;-75
2021/05/05 12:25:11;;;;;;;1.87;0.93;;;13.50;91.90;;;;;;5013779;28;20403;-75
2021/05/05 12:27:38;;;;;;;6.50;3.50;;;13.20;90.40;;;;;;5014600;28;20422;-75
2021/05/05 12:30:07;;;;;;;1.33;1.07;;;13.50;91.10;;;;;;5014405;28;20451;-77
2021/05/05 12:32:47;;;;;;;2.60;1.30;;;12.90;87.50;;;;;;5012967;28;20411;-77
2021/05/05 12:35:23;;;;;;;2.47;1.30;;;12.90;89.50;;;;;;5013384;28;20894;-77
2021/05/05 12:37:51;;;;;;;5.57;1.80;;;13.30;90.20;;;;;;5012917;28;20487;-76
2021/05/05 12:40:17;;;;;;;1.20;1.10;;;13.50;89.70;;;;;;5013525;28;20498;-76
2021/05/05 12:42:43;;;;;;;8.90;1.50;;;13.80;90.00;;;;;;5015168;28;20482;-76
2021/05/05 12:45:14;;;;;;;2.30;1.37;;;13.60;89.70;;;;;;5016314;28;20407;-77
2021/05/05 12:47:41;;;;;;;3.80;1.27;;;13.10;90.50;;;;;;5014180;28;20419;-77
2021/05/05 12:50:09;;;;;;;5.87;1.30;;;13.10;90.10;;;;;;5014392;28;20500;-77
2021/05/05 12:52:37;;;;;;;5.40;1.70;;;13.20;90.80;;;;;;5014654;28;20437;-77
2021/05/05 12:55:24;;;;;;;2.97;1.07;;;13.30;91.00;;;;;;5015737;28;20867;-77
2021/05/05 12:58:08;;;;;;;1.50;1.10;;;13.40;90.60;;;;;;5012717;28;20431;-77
2021/05/05 13:00:36;;;;;;;2.10;1.30;;;13.30;91.20;;;;;;5012293;28;20479;-77
2021/05/05 13:03:04;;;;;;;2.60;1.27;;;13.20;92.00;;;;;;5011517;28;20937;-77